sensor_id;sensor_type;location;lat;lon;timestamp;temperature;humidity
21335;DHT22;69435;52.670;13.544;2023-05-07T00:02:16;11.50;64.10
21335;DHT22;69435;52.670;13.544;2023-05-07T00:05:02;11.50;64.10
21335;DHT22;69435;52.670;13.544;2023-05-07T00:07:49;11.50;64.80
21335;DHT22;69435;52.670;13.544;2023-05-07T00:10:35;11.50;63.80
21335;DHT22;69435;52.670;13.544;2023-05-07T00:13:21;11.50;63.70
21335;DHT22;69435;52.670;13.544;2023-05-07T00:16:07;11.50;63.80
21335;DHT22;69435;52.670;13.544;2023-05-07T00:18:53;11.50;63.70
21335;DHT22;69435;52.670;13.544;2023-05-07T00:21:39;11.50;63.90
21335;DHT22;69435;52.670;13.544;2023-05-07T00:24:25;11.40;63.60
21335;DHT22;69435;52.670;13.544;2023-05-07T00:27:11;11.40;63.40
21335;DHT22;69435;52.670;13.544;2023-05-07T00:29:57;11.40;63.40
21335;DHT22;69435;52.670;13.544;2023-05-07T00:32:43;11.40;63.40
21335;DHT22;69435;52.670;13.544;2023-05-07T00:35:31;11.40;63.30
21335;DHT22;69435;52.670;13.544;2023-05-07T00:38:16;11.40;63.20
21335;DHT22;69435;52.670;13.544;2023-05-07T00:41:02;11.40;63.30
21335;DHT22;69435;52.670;13.544;2023-05-07T00:43:48;11.40;63.50
21335;DHT22;69435;52.670;13.544;2023-05-07T00:46:37;11.40;63.50
21335;DHT22;69435;52.670;13.544;2023-05-07T00:49:34;11.40;63.40
21335;DHT22;69435;52.670;13.544;2023-05-07T00:52:29;11.40;63.30
21335;DHT22;69435;52.670;13.544;2023-05-07T00:55:15;11.40;63.40
21335;DHT22;69435;52.670;13.544;2023-05-07T00:58:02;11.40;63.40
21335;DHT22;69435;52.670;13.544;2023-05-07T01:00:48;11.40;63.40
21335;DHT22;69435;52.670;13.544;2023-05-07T01:03:34;11.40;63.40
21335;DHT22;69435;52.670;13.544;2023-05-07T01:06:23;11.40;63.60
21335;DHT22;69435;52.670;13.544;2023-05-07T01:09:12;11.40;63.50
21335;DHT22;69435;52.670;13.544;2023-05-07T01:11:58;11.30;63.70
21335;DHT22;69435;52.670;13.544;2023-05-07T01:14:45;11.40;63.80
21335;DHT22;69435;52.670;13.544;2023-05-07T01:17:35;11.30;63.60
21335;DHT22;69435;52.670;13.544;2023-05-07T01:20:23;11.30;63.50
21335;DHT22;69435;52.670;13.544;2023-05-07T01:23:11;11.30;63.70
21335;DHT22;69435;52.670;13.544;2023-05-07T01:25:57;11.30;63.80
21335;DHT22;69435;52.670;13.544;2023-05-07T01:28:43;11.30;63.50
21335;DHT22;69435;52.670;13.544;2023-05-07T01:31:29;11.30;63.50
21335;DHT22;69435;52.670;13.544;2023-05-07T01:34:17;11.30;63.40
21335;DHT22;69435;52.670;13.544;2023-05-07T01:37:06;11.30;63.20
21335;DHT22;69435;52.670;13.544;2023-05-07T01:39:52;11.30;63.90
21335;DHT22;69435;52.670;13.544;2023-05-07T01:42:41;11.20;63.10
21335;DHT22;69435;52.670;13.544;2023-05-07T01:45:30;11.20;63.20
21335;DHT22;69435;52.670;13.544;2023-05-07T01:48:17;11.20;63.30
21335;DHT22;69435;52.670;13.544;2023-05-07T01:51:04;11.20;63.40
21335;DHT22;69435;52.670;13.544;2023-05-07T01:53:52;11.20;63.30
21335;DHT22;69435;52.670;13.544;2023-05-07T01:56:38;11.20;63.10
21335;DHT22;69435;52.670;13.544;2023-05-07T01:59:25;11.20;62.90
21335;DHT22;69435;52.670;13.544;2023-05-07T02:02:11;11.20;63.10
21335;DHT22;69435;52.670;13.544;2023-05-07T02:04:57;11.20;63.00
21335;DHT22;69435;52.670;13.544;2023-05-07T02:07:43;11.20;63.10
21335;DHT22;69435;52.670;13.544;2023-05-07T02:10:29;11.20;63.10
21335;DHT22;69435;52.670;13.544;2023-05-07T02:13:15;11.20;62.60
21335;DHT22;69435;52.670;13.544;2023-05-07T02:16:01;11.10;62.70
21335;DHT22;69435;52.670;13.544;2023-05-07T02:18:48;11.20;62.50
21335;DHT22;69435;52.670;13.544;2023-05-07T02:21:34;11.10;62.30
21335;DHT22;69435;52.670;13.544;2023-05-07T02:24:21;11.10;62.30
21335;DHT22;69435;52.670;13.544;2023-05-07T02:27:07;11.10;62.40
21335;DHT22;69435;52.670;13.544;2023-05-07T02:29:53;11.10;62.50
21335;DHT22;69435;52.670;13.544;2023-05-07T02:32:39;11.10;62.20
21335;DHT22;69435;52.670;13.544;2023-05-07T02:35:26;11.10;62.20
21335;DHT22;69435;52.670;13.544;2023-05-07T02:38:12;11.10;62.50
21335;DHT22;69435;52.670;13.544;2023-05-07T02:40:58;11.00;62.30
21335;DHT22;69435;52.670;13.544;2023-05-07T02:43:44;11.10;62.30
21335;DHT22;69435;52.670;13.544;2023-05-07T02:46:30;11.10;62.00
21335;DHT22;69435;52.670;13.544;2023-05-07T02:49:17;11.10;62.20
21335;DHT22;69435;52.670;13.544;2023-05-07T02:52:03;11.00;62.20
21335;DHT22;69435;52.670;13.544;2023-05-07T02:54:49;11.00;62.10
21335;DHT22;69435;52.670;13.544;2023-05-07T02:57:35;11.00;61.80
21335;DHT22;69435;52.670;13.544;2023-05-07T03:00:21;11.00;61.70
21335;DHT22;69435;52.670;13.544;2023-05-07T03:03:07;11.00;61.80
21335;DHT22;69435;52.670;13.544;2023-05-07T03:05:53;11.10;61.90
21335;DHT22;69435;52.670;13.544;2023-05-07T03:08:39;11.00;61.70
21335;DHT22;69435;52.670;13.544;2023-05-07T03:11:26;11.00;61.50
21335;DHT22;69435;52.670;13.544;2023-05-07T03:14:12;11.10;61.50
21335;DHT22;69435;52.670;13.544;2023-05-07T03:16:58;11.10;61.30
21335;DHT22;69435;52.670;13.544;2023-05-07T03:19:44;11.10;61.20
21335;DHT22;69435;52.670;13.544;2023-05-07T03:22:31;11.10;61.10
21335;DHT22;69435;52.670;13.544;2023-05-07T03:25:17;11.20;61.00
21335;DHT22;69435;52.670;13.544;2023-05-07T03:28:03;11.10;60.90
21335;DHT22;69435;52.670;13.544;2023-05-07T03:30:49;11.10;61.00
21335;DHT22;69435;52.670;13.544;2023-05-07T03:33:49;11.00;61.10
21335;DHT22;69435;52.670;13.544;2023-05-07T03:36:36;11.10;61.20
21335;DHT22;69435;52.670;13.544;2023-05-07T03:39:22;11.00;60.80
21335;DHT22;69435;52.670;13.544;2023-05-07T03:42:08;11.00;60.90
21335;DHT22;69435;52.670;13.544;2023-05-07T03:44:54;11.10;61.00
21335;DHT22;69435;52.670;13.544;2023-05-07T03:47:40;11.10;61.10
21335;DHT22;69435;52.670;13.544;2023-05-07T03:50:26;11.10;61.10
21335;DHT22;69435;52.670;13.544;2023-05-07T03:53:12;11.10;61.10
21335;DHT22;69435;52.670;13.544;2023-05-07T03:55:58;11.10;61.00
21335;DHT22;69435;52.670;13.544;2023-05-07T03:58:44;11.10;60.80
21335;DHT22;69435;52.670;13.544;2023-05-07T04:01:30;11.10;60.70
21335;DHT22;69435;52.670;13.544;2023-05-07T04:04:16;11.10;60.70
21335;DHT22;69435;52.670;13.544;2023-05-07T04:07:02;11.10;60.60
21335;DHT22;69435;52.670;13.544;2023-05-07T04:09:50;11.20;60.60
21335;DHT22;69435;52.670;13.544;2023-05-07T04:12:36;11.10;60.60
21335;DHT22;69435;52.670;13.544;2023-05-07T04:15:21;11.10;60.80
21335;DHT22;69435;52.670;13.544;2023-05-07T04:18:07;11.10;60.80
21335;DHT22;69435;52.670;13.544;2023-05-07T04:20:54;11.10;60.80
21335;DHT22;69435;52.670;13.544;2023-05-07T04:23:40;11.10;60.90
21335;DHT22;69435;52.670;13.544;2023-05-07T04:26:26;11.10;61.00
21335;DHT22;69435;52.670;13.544;2023-05-07T04:29:11;11.10;61.40
21335;DHT22;69435;52.670;13.544;2023-05-07T04:31:58;11.10;61.50
21335;DHT22;69435;52.670;13.544;2023-05-07T04:34:44;11.10;61.30
21335;DHT22;69435;52.670;13.544;2023-05-07T04:37:32;11.10;61.20
21335;DHT22;69435;52.670;13.544;2023-05-07T04:40:18;11.10;61.40
21335;DHT22;69435;52.670;13.544;2023-05-07T04:43:04;11.10;61.00
21335;DHT22;69435;52.670;13.544;2023-05-07T04:45:51;11.10;61.10
21335;DHT22;69435;52.670;13.544;2023-05-07T04:48:37;11.10;61.50
21335;DHT22;69435;52.670;13.544;2023-05-07T04:51:23;11.10;61.40
21335;DHT22;69435;52.670;13.544;2023-05-07T04:54:10;11.20;61.10
21335;DHT22;69435;52.670;13.544;2023-05-07T04:56:56;11.20;61.10
21335;DHT22;69435;52.670;13.544;2023-05-07T04:59:42;11.20;61.80
21335;DHT22;69435;52.670;13.544;2023-05-07T05:02:28;11.20;61.00
21335;DHT22;69435;52.670;13.544;2023-05-07T05:05:14;11.30;60.90
21335;DHT22;69435;52.670;13.544;2023-05-07T05:08:01;11.30;60.90
21335;DHT22;69435;52.670;13.544;2023-05-07T05:10:47;11.40;60.80
21335;DHT22;69435;52.670;13.544;2023-05-07T05:13:36;11.40;60.90
21335;DHT22;69435;52.670;13.544;2023-05-07T05:16:22;11.50;61.10
21335;DHT22;69435;52.670;13.544;2023-05-07T05:19:08;11.60;60.60
21335;DHT22;69435;52.670;13.544;2023-05-07T05:21:54;11.70;59.90
21335;DHT22;69435;52.670;13.544;2023-05-07T05:24:40;11.80;59.40
21335;DHT22;69435;52.670;13.544;2023-05-07T05:27:26;11.90;58.80
21335;DHT22;69435;52.670;13.544;2023-05-07T05:30:12;12.10;58.80
21335;DHT22;69435;52.670;13.544;2023-05-07T05:32:58;12.20;58.10
21335;DHT22;69435;52.670;13.544;2023-05-07T05:35:44;12.30;57.60
21335;DHT22;69435;52.670;13.544;2023-05-07T05:38:30;12.40;57.40
21335;DHT22;69435;52.670;13.544;2023-05-07T05:41:16;12.40;57.80
21335;DHT22;69435;52.670;13.544;2023-05-07T05:44:02;12.50;58.00
21335;DHT22;69435;52.670;13.544;2023-05-07T05:46:48;12.50;56.90
21335;DHT22;69435;52.670;13.544;2023-05-07T05:49:37;12.50;56.40
21335;DHT22;69435;52.670;13.544;2023-05-07T05:52:23;12.60;56.30
21335;DHT22;69435;52.670;13.544;2023-05-07T05:55:09;12.50;57.10
21335;DHT22;69435;52.670;13.544;2023-05-07T05:57:56;12.50;56.80
21335;DHT22;69435;52.670;13.544;2023-05-07T06:00:42;12.50;57.00
21335;DHT22;69435;52.670;13.544;2023-05-07T06:03:28;12.50;56.30
21335;DHT22;69435;52.670;13.544;2023-05-07T06:06:14;12.50;56.00
21335;DHT22;69435;52.670;13.544;2023-05-07T06:09:00;12.50;56.90
21335;DHT22;69435;52.670;13.544;2023-05-07T06:11:46;12.50;57.10
21335;DHT22;69435;52.670;13.544;2023-05-07T06:14:32;12.60;57.00
21335;DHT22;69435;52.670;13.544;2023-05-07T06:17:18;12.70;56.70
21335;DHT22;69435;52.670;13.544;2023-05-07T06:20:04;12.70;56.70
21335;DHT22;69435;52.670;13.544;2023-05-07T06:22:51;12.80;57.00
21335;DHT22;69435;52.670;13.544;2023-05-07T06:25:37;12.80;57.10
21335;DHT22;69435;52.670;13.544;2023-05-07T06:28:23;13.00;56.70
21335;DHT22;69435;52.670;13.544;2023-05-07T06:31:16;13.00;57.00
21335;DHT22;69435;52.670;13.544;2023-05-07T06:34:05;13.20;55.80
21335;DHT22;69435;52.670;13.544;2023-05-07T06:36:51;13.20;55.30
21335;DHT22;69435;52.670;13.544;2023-05-07T06:39:37;13.20;55.00
21335;DHT22;69435;52.670;13.544;2023-05-07T06:42:23;13.30;55.10
21335;DHT22;69435;52.670;13.544;2023-05-07T06:45:10;13.30;55.10
21335;DHT22;69435;52.670;13.544;2023-05-07T06:47:56;13.40;55.60
21335;DHT22;69435;52.670;13.544;2023-05-07T06:50:42;13.40;54.50
21335;DHT22;69435;52.670;13.544;2023-05-07T06:53:28;13.50;55.00
21335;DHT22;69435;52.670;13.544;2023-05-07T06:56:16;13.50;54.70
21335;DHT22;69435;52.670;13.544;2023-05-07T06:59:02;13.60;54.30
21335;DHT22;69435;52.670;13.544;2023-05-07T07:01:48;13.60;54.30
21335;DHT22;69435;52.670;13.544;2023-05-07T07:04:34;13.60;54.00
21335;DHT22;69435;52.670;13.544;2023-05-07T07:07:20;13.70;54.60
21335;DHT22;69435;52.670;13.544;2023-05-07T07:10:08;13.80;54.10
21335;DHT22;69435;52.670;13.544;2023-05-07T07:12:54;13.80;53.80
21335;DHT22;69435;52.670;13.544;2023-05-07T07:15:40;13.90;53.70
21335;DHT22;69435;52.670;13.544;2023-05-07T07:18:26;14.00;53.60
21335;DHT22;69435;52.670;13.544;2023-05-07T07:21:12;14.20;53.30
21335;DHT22;69435;52.670;13.544;2023-05-07T07:23:58;14.60;52.70
21335;DHT22;69435;52.670;13.544;2023-05-07T07:26:43;15.20;52.50
21335;DHT22;69435;52.670;13.544;2023-05-07T07:29:30;16.20;50.80
21335;DHT22;69435;52.670;13.544;2023-05-07T07:32:16;17.30;47.80
21335;DHT22;69435;52.670;13.544;2023-05-07T07:35:02;18.30;44.20
21335;DHT22;69435;52.670;13.544;2023-05-07T07:37:48;19.10;43.40
21335;DHT22;69435;52.670;13.544;2023-05-07T07:40:35;19.80;40.50
21335;DHT22;69435;52.670;13.544;2023-05-07T07:43:21;20.30;40.10
21335;DHT22;69435;52.670;13.544;2023-05-07T07:46:07;20.70;38.50
21335;DHT22;69435;52.670;13.544;2023-05-07T07:48:53;21.10;38.20
21335;DHT22;69435;52.670;13.544;2023-05-07T07:51:39;21.40;35.90
21335;DHT22;69435;52.670;13.544;2023-05-07T07:54:25;21.40;34.80
21335;DHT22;69435;52.670;13.544;2023-05-07T07:57:12;21.40;35.00
21335;DHT22;69435;52.670;13.544;2023-05-07T07:59:58;21.50;34.40
21335;DHT22;69435;52.670;13.544;2023-05-07T08:02:45;21.50;34.30
21335;DHT22;69435;52.670;13.544;2023-05-07T08:05:52;21.60;33.70
21335;DHT22;69435;52.670;13.544;2023-05-07T08:08:38;21.80;34.30
21335;DHT22;69435;52.670;13.544;2023-05-07T08:11:24;21.90;33.60
21335;DHT22;69435;52.670;13.544;2023-05-07T08:14:11;22.00;33.40
21335;DHT22;69435;52.670;13.544;2023-05-07T08:16:57;22.20;34.20
21335;DHT22;69435;52.670;13.544;2023-05-07T08:19:43;22.50;33.50
21335;DHT22;69435;52.670;13.544;2023-05-07T08:22:30;22.70;34.00
21335;DHT22;69435;52.670;13.544;2023-05-07T08:25:16;23.00;33.50
21335;DHT22;69435;52.670;13.544;2023-05-07T08:28:02;23.00;33.50
21335;DHT22;69435;52.670;13.544;2023-05-07T08:30:49;23.20;32.70
21335;DHT22;69435;52.670;13.544;2023-05-07T08:33:35;23.40;32.20
21335;DHT22;69435;52.670;13.544;2023-05-07T08:36:21;23.40;31.80
21335;DHT22;69435;52.670;13.544;2023-05-07T08:39:07;23.30;31.90
21335;DHT22;69435;52.670;13.544;2023-05-07T08:41:55;23.20;31.90
21335;DHT22;69435;52.670;13.544;2023-05-07T08:44:45;23.20;32.00
21335;DHT22;69435;52.670;13.544;2023-05-07T08:47:40;23.00;32.10
21335;DHT22;69435;52.670;13.544;2023-05-07T08:50:30;23.10;33.60
21335;DHT22;69435;52.670;13.544;2023-05-07T08:53:21;23.40;33.30
21335;DHT22;69435;52.670;13.544;2023-05-07T08:56:08;23.50;31.60
21335;DHT22;69435;52.670;13.544;2023-05-07T08:58:55;23.60;32.40
21335;DHT22;69435;52.670;13.544;2023-05-07T09:01:46;23.60;32.30
21335;DHT22;69435;52.670;13.544;2023-05-07T09:04:32;23.70;30.80
21335;DHT22;69435;52.670;13.544;2023-05-07T09:07:19;23.70;31.20
21335;DHT22;69435;52.670;13.544;2023-05-07T09:10:06;23.60;31.10
21335;DHT22;69435;52.670;13.544;2023-05-07T09:12:53;23.20;30.90
21335;DHT22;69435;52.670;13.544;2023-05-07T09:15:39;22.60;32.20
21335;DHT22;69435;52.670;13.544;2023-05-07T09:18:25;22.10;33.30
21335;DHT22;69435;52.670;13.544;2023-05-07T09:21:15;21.90;34.00
21335;DHT22;69435;52.670;13.544;2023-05-07T09:24:02;21.80;34.70
21335;DHT22;69435;52.670;13.544;2023-05-07T09:26:48;21.80;34.00
21335;DHT22;69435;52.670;13.544;2023-05-07T09:29:34;21.60;33.20
21335;DHT22;69435;52.670;13.544;2023-05-07T09:32:21;21.40;35.00
21335;DHT22;69435;52.670;13.544;2023-05-07T09:35:15;21.40;34.50
21335;DHT22;69435;52.670;13.544;2023-05-07T09:38:02;21.30;34.60
21335;DHT22;69435;52.670;13.544;2023-05-07T09:41:05;21.10;34.90
21335;DHT22;69435;52.670;13.544;2023-05-07T09:43:56;20.80;35.40
21335;DHT22;69435;52.670;13.544;2023-05-07T09:46:43;20.50;37.20
21335;DHT22;69435;52.670;13.544;2023-05-07T09:49:37;20.40;36.10
21335;DHT22;69435;52.670;13.544;2023-05-07T09:52:24;20.40;35.40
21335;DHT22;69435;52.670;13.544;2023-05-07T09:55:15;20.20;36.50
21335;DHT22;69435;52.670;13.544;2023-05-07T09:58:02;20.10;38.50
21335;DHT22;69435;52.670;13.544;2023-05-07T10:00:51;19.90;36.70
21335;DHT22;69435;52.670;13.544;2023-05-07T10:03:41;19.70;36.50
21335;DHT22;69435;52.670;13.544;2023-05-07T10:06:29;19.50;37.30
21335;DHT22;69435;52.670;13.544;2023-05-07T10:09:16;19.20;37.20
21335;DHT22;69435;52.670;13.544;2023-05-07T10:12:03;19.00;37.70
21335;DHT22;69435;52.670;13.544;2023-05-07T10:14:50;18.80;38.80
21335;DHT22;69435;52.670;13.544;2023-05-07T10:17:39;18.80;39.10
21335;DHT22;69435;52.670;13.544;2023-05-07T10:20:27;18.80;39.40
21335;DHT22;69435;52.670;13.544;2023-05-07T10:23:17;18.80;38.80
21335;DHT22;69435;52.670;13.544;2023-05-07T10:26:11;18.80;38.40
21335;DHT22;69435;52.670;13.544;2023-05-07T10:29:07;18.80;38.50
21335;DHT22;69435;52.670;13.544;2023-05-07T10:32:38;18.80;39.40
21335;DHT22;69435;52.670;13.544;2023-05-07T10:35:31;18.70;38.50
21335;DHT22;69435;52.670;13.544;2023-05-07T10:38:27;19.00;39.40
21335;DHT22;69435;52.670;13.544;2023-05-07T10:41:14;19.30;38.60
21335;DHT22;69435;52.670;13.544;2023-05-07T10:44:02;19.60;37.30
21335;DHT22;69435;52.670;13.544;2023-05-07T10:47:11;19.90;37.20
21335;DHT22;69435;52.670;13.544;2023-05-07T10:53:22;20.10;37.20
21335;DHT22;69435;52.670;13.544;2023-05-07T10:59:30;20.10;36.00
21335;DHT22;69435;52.670;13.544;2023-05-07T11:02:18;20.00;36.00
21335;DHT22;69435;52.670;13.544;2023-05-07T11:05:20;20.00;35.60
21335;DHT22;69435;52.670;13.544;2023-05-07T11:08:09;20.00;37.60
21335;DHT22;69435;52.670;13.544;2023-05-07T11:10:56;20.20;36.80
21335;DHT22;69435;52.670;13.544;2023-05-07T11:13:48;20.50;36.90
21335;DHT22;69435;52.670;13.544;2023-05-07T11:16:35;21.10;36.40
21335;DHT22;69435;52.670;13.544;2023-05-07T11:19:48;21.70;36.60
21335;DHT22;69435;52.670;13.544;2023-05-07T11:22:38;22.10;33.90
21335;DHT22;69435;52.670;13.544;2023-05-07T11:25:25;22.20;33.10
21335;DHT22;69435;52.670;13.544;2023-05-07T11:28:12;22.00;33.30
21335;DHT22;69435;52.670;13.544;2023-05-07T11:30:58;21.60;32.90
21335;DHT22;69435;52.670;13.544;2023-05-07T11:33:45;21.40;33.40
21335;DHT22;69435;52.670;13.544;2023-05-07T11:36:32;21.10;33.10
21335;DHT22;69435;52.670;13.544;2023-05-07T11:39:32;20.80;34.20
21335;DHT22;69435;52.670;13.544;2023-05-07T11:42:34;20.70;34.30
21335;DHT22;69435;52.670;13.544;2023-05-07T11:45:24;20.70;33.30
21335;DHT22;69435;52.670;13.544;2023-05-07T11:48:14;20.60;32.80
21335;DHT22;69435;52.670;13.544;2023-05-07T11:51:05;20.40;33.50
21335;DHT22;69435;52.670;13.544;2023-05-07T11:53:52;20.40;34.10
21335;DHT22;69435;52.670;13.544;2023-05-07T11:56:40;20.30;34.80
21335;DHT22;69435;52.670;13.544;2023-05-07T11:59:26;20.40;34.40
21335;DHT22;69435;52.670;13.544;2023-05-07T12:02:14;20.60;34.80
21335;DHT22;69435;52.670;13.544;2023-05-07T12:05:01;20.70;33.20
21335;DHT22;69435;52.670;13.544;2023-05-07T12:07:48;20.70;32.70
21335;DHT22;69435;52.670;13.544;2023-05-07T12:10:34;20.80;34.70
21335;DHT22;69435;52.670;13.544;2023-05-07T12:13:22;21.00;35.90
21335;DHT22;69435;52.670;13.544;2023-05-07T12:16:10;21.30;33.60
21335;DHT22;69435;52.670;13.544;2023-05-07T12:18:57;21.50;33.60
21335;DHT22;69435;52.670;13.544;2023-05-07T12:21:44;21.70;34.10
21335;DHT22;69435;52.670;13.544;2023-05-07T12:24:47;22.00;34.40
21335;DHT22;69435;52.670;13.544;2023-05-07T12:27:37;22.20;32.40
21335;DHT22;69435;52.670;13.544;2023-05-07T12:30:23;22.10;32.90
21335;DHT22;69435;52.670;13.544;2023-05-07T12:33:11;22.00;32.80
21335;DHT22;69435;52.670;13.544;2023-05-07T12:35:58;21.80;30.60
21335;DHT22;69435;52.670;13.544;2023-05-07T12:38:49;21.60;31.00
21335;DHT22;69435;52.670;13.544;2023-05-07T12:41:58;21.40;32.10
21335;DHT22;69435;52.670;13.544;2023-05-07T12:44:45;21.20;32.40
21335;DHT22;69435;52.670;13.544;2023-05-07T12:47:32;21.20;32.80
21335;DHT22;69435;52.670;13.544;2023-05-07T12:50:19;21.20;32.30
21335;DHT22;69435;52.670;13.544;2023-05-07T12:53:07;21.40;33.30
21335;DHT22;69435;52.670;13.544;2023-05-07T12:55:59;21.50;32.50
21335;DHT22;69435;52.670;13.544;2023-05-07T12:58:48;21.70;32.40
21335;DHT22;69435;52.670;13.544;2023-05-07T13:01:34;21.70;32.20
21335;DHT22;69435;52.670;13.544;2023-05-07T13:04:20;21.50;31.20
21335;DHT22;69435;52.670;13.544;2023-05-07T13:07:10;21.30;32.20
21335;DHT22;69435;52.670;13.544;2023-05-07T13:09:56;21.10;31.90
21335;DHT22;69435;52.670;13.544;2023-05-07T13:12:42;21.00;32.50
21335;DHT22;69435;52.670;13.544;2023-05-07T13:15:28;20.90;31.60
21335;DHT22;69435;52.670;13.544;2023-05-07T13:18:14;20.80;33.40
21335;DHT22;69435;52.670;13.544;2023-05-07T13:21:00;20.80;32.90
21335;DHT22;69435;52.670;13.544;2023-05-07T13:23:47;20.90;33.50
21335;DHT22;69435;52.670;13.544;2023-05-07T13:26:33;21.10;32.30
21335;DHT22;69435;52.670;13.544;2023-05-07T13:29:19;21.10;32.90
21335;DHT22;69435;52.670;13.544;2023-05-07T13:32:10;21.20;31.60
21335;DHT22;69435;52.670;13.544;2023-05-07T13:34:55;21.30;32.10
21335;DHT22;69435;52.670;13.544;2023-05-07T13:37:41;21.30;31.60
21335;DHT22;69435;52.670;13.544;2023-05-07T13:40:28;21.30;31.50
21335;DHT22;69435;52.670;13.544;2023-05-07T13:43:16;21.40;32.20
21335;DHT22;69435;52.670;13.544;2023-05-07T13:46:03;21.50;32.00
21335;DHT22;69435;52.670;13.544;2023-05-07T13:48:48;21.60;31.80
21335;DHT22;69435;52.670;13.544;2023-05-07T13:51:38;21.60;32.10
21335;DHT22;69435;52.670;13.544;2023-05-07T13:54:24;21.50;31.70
21335;DHT22;69435;52.670;13.544;2023-05-07T13:57:10;21.30;32.20
21335;DHT22;69435;52.670;13.544;2023-05-07T13:59:56;21.20;32.60
21335;DHT22;69435;52.670;13.544;2023-05-07T14:02:41;21.20;32.20
21335;DHT22;69435;52.670;13.544;2023-05-07T14:05:28;21.20;32.10
21335;DHT22;69435;52.670;13.544;2023-05-07T14:08:14;21.20;30.30
21335;DHT22;69435;52.670;13.544;2023-05-07T14:11:00;21.30;31.10
21335;DHT22;69435;52.670;13.544;2023-05-07T14:13:46;21.40;31.30
21335;DHT22;69435;52.670;13.544;2023-05-07T14:16:34;21.30;30.50
21335;DHT22;69435;52.670;13.544;2023-05-07T14:19:20;21.10;30.70
21335;DHT22;69435;52.670;13.544;2023-05-07T14:22:08;20.80;31.10
21335;DHT22;69435;52.670;13.544;2023-05-07T14:24:54;20.50;32.20
21335;DHT22;69435;52.670;13.544;2023-05-07T14:27:40;20.30;32.60
21335;DHT22;69435;52.670;13.544;2023-05-07T14:30:26;20.10;31.90
21335;DHT22;69435;52.670;13.544;2023-05-07T14:33:12;19.90;32.50
21335;DHT22;69435;52.670;13.544;2023-05-07T14:35:58;19.70;33.00
21335;DHT22;69435;52.670;13.544;2023-05-07T14:38:44;19.60;33.80
21335;DHT22;69435;52.670;13.544;2023-05-07T14:41:30;19.50;33.50
21335;DHT22;69435;52.670;13.544;2023-05-07T14:44:17;19.40;33.50
21335;DHT22;69435;52.670;13.544;2023-05-07T14:47:03;19.30;34.50
21335;DHT22;69435;52.670;13.544;2023-05-07T14:49:50;19.10;34.10
21335;DHT22;69435;52.670;13.544;2023-05-07T14:52:37;19.00;34.80
21335;DHT22;69435;52.670;13.544;2023-05-07T14:55:23;18.90;35.20
21335;DHT22;69435;52.670;13.544;2023-05-07T14:58:10;19.10;35.40
21335;DHT22;69435;52.670;13.544;2023-05-07T15:00:57;19.10;35.00
21335;DHT22;69435;52.670;13.544;2023-05-07T15:03:44;19.00;35.10
21335;DHT22;69435;52.670;13.544;2023-05-07T15:06:31;18.90;35.40
21335;DHT22;69435;52.670;13.544;2023-05-07T15:09:17;18.80;35.20
21335;DHT22;69435;52.670;13.544;2023-05-07T15:12:03;18.70;34.90
21335;DHT22;69435;52.670;13.544;2023-05-07T15:14:49;18.60;34.10
21335;DHT22;69435;52.670;13.544;2023-05-07T15:17:35;18.40;34.50
21335;DHT22;69435;52.670;13.544;2023-05-07T15:20:21;18.40;35.00
21335;DHT22;69435;52.670;13.544;2023-05-07T15:23:07;18.40;35.30
21335;DHT22;69435;52.670;13.544;2023-05-07T15:26:00;18.50;35.90
21335;DHT22;69435;52.670;13.544;2023-05-07T15:28:47;18.60;36.10
21335;DHT22;69435;52.670;13.544;2023-05-07T15:31:33;18.70;36.20
21335;DHT22;69435;52.670;13.544;2023-05-07T15:34:19;18.90;35.70
21335;DHT22;69435;52.670;13.544;2023-05-07T15:37:05;19.00;35.20
21335;DHT22;69435;52.670;13.544;2023-05-07T15:39:51;19.00;34.70
21335;DHT22;69435;52.670;13.544;2023-05-07T15:42:36;19.10;35.30
21335;DHT22;69435;52.670;13.544;2023-05-07T15:45:23;19.10;35.30
21335;DHT22;69435;52.670;13.544;2023-05-07T15:48:10;19.00;35.80
21335;DHT22;69435;52.670;13.544;2023-05-07T15:50:56;18.80;36.00
21335;DHT22;69435;52.670;13.544;2023-05-07T15:53:42;18.70;35.70
21335;DHT22;69435;52.670;13.544;2023-05-07T15:56:29;18.70;36.10
21335;DHT22;69435;52.670;13.544;2023-05-07T15:59:18;18.70;35.70
21335;DHT22;69435;52.670;13.544;2023-05-07T16:02:04;18.70;35.10
21335;DHT22;69435;52.670;13.544;2023-05-07T16:04:50;18.70;36.10
21335;DHT22;69435;52.670;13.544;2023-05-07T16:07:36;18.70;35.10
21335;DHT22;69435;52.670;13.544;2023-05-07T16:10:23;18.60;35.40
21335;DHT22;69435;52.670;13.544;2023-05-07T16:13:09;18.60;35.00
21335;DHT22;69435;52.670;13.544;2023-05-07T16:15:56;18.60;35.10
21335;DHT22;69435;52.670;13.544;2023-05-07T16:18:43;18.60;35.50
21335;DHT22;69435;52.670;13.544;2023-05-07T16:21:29;18.50;35.50
21335;DHT22;69435;52.670;13.544;2023-05-07T16:24:15;18.40;35.20
21335;DHT22;69435;52.670;13.544;2023-05-07T16:27:01;18.40;35.40
21335;DHT22;69435;52.670;13.544;2023-05-07T16:29:47;18.30;36.00
21335;DHT22;69435;52.670;13.544;2023-05-07T16:32:33;18.20;35.70
21335;DHT22;69435;52.670;13.544;2023-05-07T16:35:20;18.00;35.90
21335;DHT22;69435;52.670;13.544;2023-05-07T16:38:06;18.00;36.20
21335;DHT22;69435;52.670;13.544;2023-05-07T16:40:55;17.90;35.90
21335;DHT22;69435;52.670;13.544;2023-05-07T16:43:41;17.80;37.00
21335;DHT22;69435;52.670;13.544;2023-05-07T16:46:27;17.60;36.60
21335;DHT22;69435;52.670;13.544;2023-05-07T16:49:13;17.50;37.00
21335;DHT22;69435;52.670;13.544;2023-05-07T16:51:58;17.40;37.20
21335;DHT22;69435;52.670;13.544;2023-05-07T16:54:44;17.30;37.50
21335;DHT22;69435;52.670;13.544;2023-05-07T16:57:31;17.30;37.60
21335;DHT22;69435;52.670;13.544;2023-05-07T17:00:17;17.30;36.70
21335;DHT22;69435;52.670;13.544;2023-05-07T17:03:04;17.40;37.00
21335;DHT22;69435;52.670;13.544;2023-05-07T17:05:51;17.30;37.20
21335;DHT22;69435;52.670;13.544;2023-05-07T17:08:37;17.30;37.60
21335;DHT22;69435;52.670;13.544;2023-05-07T17:11:24;17.20;37.70
21335;DHT22;69435;52.670;13.544;2023-05-07T17:14:12;17.10;37.50
21335;DHT22;69435;52.670;13.544;2023-05-07T17:16:58;17.00;38.10
21335;DHT22;69435;52.670;13.544;2023-05-07T17:19:44;16.80;38.50
21335;DHT22;69435;52.670;13.544;2023-05-07T17:22:33;16.70;38.70
21335;DHT22;69435;52.670;13.544;2023-05-07T17:25:22;16.60;38.70
21335;DHT22;69435;52.670;13.544;2023-05-07T17:28:08;16.50;39.30